createdAt,value
2023-05-08T00:00:42.545Z,101492.94
2023-05-08T00:03:10.280Z,101493.56
2023-05-08T00:05:37.993Z,101490.16
2023-05-08T00:08:05.993Z,101501.59
2023-05-08T00:10:33.708Z,101497.28
2023-05-08T00:13:01.296Z,101490.28
2023-05-08T00:15:29.509Z,101494.00
2023-05-08T00:17:58.752Z,101495.59
2023-05-08T00:20:26.398Z,101494.00
2023-05-08T00:22:53.891Z,101508.00
2023-05-08T00:25:21.422Z,101508.13
2023-05-08T00:27:49.149Z,101511.56
2023-05-08T00:30:16.935Z,101504.44
2023-05-08T00:32:44.536Z,101509.72
2023-05-08T00:35:12.081Z,101501.88
2023-05-08T00:37:41.373Z,101513.66
2023-05-08T00:40:10.584Z,101517.22
2023-05-08T00:42:38.728Z,101519.81
2023-05-08T00:45:07.343Z,101502.25
2023-05-08T00:47:35.822Z,101512.81
2023-05-08T00:50:04.807Z,101511.09
2023-05-08T00:52:33.848Z,101515.50
2023-05-08T00:55:02.954Z,101504.94
2023-05-08T00:57:34.600Z,101512.91
2023-05-08T01:00:04.425Z,101497.88
2023-05-08T01:02:32.878Z,101506.91
2023-05-08T01:05:00.951Z,101500.84
2023-05-08T01:07:28.876Z,101509.84
2023-05-08T01:09:56.657Z,101500.84
2023-05-08T01:12:40.762Z,101507.13
2023-05-08T01:15:08.710Z,101503.56
2023-05-08T01:17:42.684Z,101506.06
2023-05-08T01:20:17.801Z,101495.25
2023-05-08T01:23:22.989Z,101490.81
2023-05-08T01:26:07.672Z,101484.28
2023-05-08T01:28:53.804Z,101486.94
2023-05-08T01:31:30.762Z,101491.03
2023-05-08T01:34:14.985Z,101477.16
2023-05-08T01:37:00.853Z,101481.72
2023-05-08T01:39:28.495Z,101502.22
2023-05-08T01:42:06.022Z,101499.72
2023-05-08T01:44:45.821Z,101513.25
2023-05-08T01:47:15.991Z,101505.47
2023-05-08T01:49:49.488Z,101510.59
2023-05-08T01:52:28.588Z,101519.44
2023-05-08T01:55:01.060Z,101512.53
2023-05-08T01:57:30.197Z,101518.63
2023-05-08T02:00:01.277Z,101519.38
2023-05-08T02:02:32.305Z,101508.88
2023-05-08T02:05:04.813Z,101514.94
2023-05-08T02:07:35.422Z,101515.06
2023-05-08T02:10:04.606Z,101517.59
2023-05-08T02:12:33.084Z,101518.63
2023-05-08T02:15:02.577Z,101519.59
2023-05-08T02:17:32.126Z,101527.38
2023-05-08T02:20:03.561Z,101529.19
2023-05-08T02:22:33.177Z,101533.09
2023-05-08T02:25:01.806Z,101534.28
2023-05-08T02:27:31.608Z,101534.16
2023-05-08T02:30:00.706Z,101529.97
2023-05-08T02:32:31.075Z,101538.66
2023-05-08T02:35:03.510Z,101527.16
2023-05-08T02:37:34.364Z,101529.69
2023-05-08T02:40:04.174Z,101524.47
2023-05-08T02:42:32.458Z,101525.56
2023-05-08T02:45:00.210Z,101529.69
2023-05-08T02:47:34.484Z,101526.94
2023-05-08T02:50:20.917Z,101523.72
2023-05-08T02:52:54.557Z,101527.31
2023-05-08T02:55:33.355Z,101536.97
2023-05-08T02:58:20.584Z,101527.16
2023-05-08T03:00:56.877Z,101521.97
2023-05-08T03:03:31.880Z,101526.09
2023-05-08T03:06:02.853Z,101526.09
2023-05-08T03:08:34.887Z,101516.38
2023-05-08T03:11:09.254Z,101516.78
2023-05-08T03:13:41.018Z,101526.38
2023-05-08T03:16:15.474Z,101526.31
2023-05-08T03:19:05.879Z,101517.75
2023-05-08T03:21:37.441Z,101519.63
2023-05-08T03:24:07.391Z,101534.66
2023-05-08T03:26:36.454Z,101524.59
2023-05-08T03:29:05.685Z,101524.91
2023-05-08T03:31:35.526Z,101537.44
2023-05-08T03:34:05.275Z,101530.16
2023-05-08T03:36:33.216Z,101531.88
2023-05-08T03:39:02.059Z,101526.53
2023-05-08T03:41:30.641Z,101522.47
2023-05-08T03:43:59.168Z,101535.69
2023-05-08T03:46:26.945Z,101526.97
2023-05-08T03:48:55.426Z,101533.22
2023-05-08T03:51:23.483Z,101546.16
2023-05-08T03:53:52.035Z,101533.66
2023-05-08T03:56:24.077Z,101543.22
2023-05-08T03:59:09.305Z,101540.16
2023-05-08T04:01:41.257Z,101538.31
2023-05-08T04:04:21.620Z,101538.50
2023-05-08T04:07:24.876Z,101541.22
2023-05-08T04:10:16.518Z,101541.72
2023-05-08T04:13:04.940Z,101535.53
2023-05-08T04:15:38.599Z,101525.19
2023-05-08T04:18:10.266Z,101537.31
2023-05-08T04:20:42.459Z,101525.50
2023-05-08T04:23:17.325Z,101525.97
2023-05-08T04:25:48.706Z,101529.53
2023-05-08T04:28:21.447Z,101529.47
2023-05-08T04:30:49.907Z,101526.19
2023-05-08T04:33:18.920Z,101536.88
2023-05-08T04:35:46.875Z,101527.03
2023-05-08T04:38:15.330Z,101535.44
2023-05-08T04:40:43.496Z,101538.56
2023-05-08T04:43:12.415Z,101523.44
2023-05-08T04:45:39.942Z,101524.75
2023-05-08T04:48:07.692Z,101538.16
2023-05-08T04:50:35.357Z,101538.25
2023-05-08T04:53:02.905Z,101544.09
2023-05-08T04:55:31.029Z,101544.56
2023-05-08T04:57:58.508Z,101543.00
2023-05-08T05:00:26.189Z,101527.31
2023-05-08T05:02:53.829Z,101549.44
2023-05-08T05:05:21.698Z,101554.44
2023-05-08T05:07:49.464Z,101550.88
2023-05-08T05:10:18.161Z,101553.34
2023-05-08T05:12:47.783Z,101552.53
2023-05-08T05:15:15.860Z,101552.94
2023-05-08T05:17:44.029Z,101553.28
2023-05-08T05:20:12.493Z,101557.25
2023-05-08T05:22:40.080Z,101547.22
2023-05-08T05:25:09.496Z,101562.59
2023-05-08T05:27:37.366Z,101554.69
2023-05-08T05:30:07.025Z,101550.03
2023-05-08T05:32:34.806Z,101555.94
2023-05-08T05:35:02.746Z,101544.38
2023-05-08T05:37:30.564Z,101542.81
2023-05-08T05:39:58.118Z,101550.72
2023-05-08T05:42:25.910Z,101551.22
2023-05-08T05:44:57.086Z,101550.88
2023-05-08T05:47:25.392Z,101549.91
2023-05-08T05:49:53.232Z,101547.91
2023-05-08T05:52:21.243Z,101549.91
2023-05-08T05:54:49.014Z,101544.31
2023-05-08T05:57:16.629Z,101549.47
2023-05-08T05:59:44.647Z,101554.81
2023-05-08T06:02:18.676Z,101550.34
2023-05-08T06:04:46.799Z,101561.22
2023-05-08T06:07:15.081Z,101552.22
2023-05-08T06:09:42.711Z,101552.84
2023-05-08T06:12:12.107Z,101547.22
2023-05-08T06:14:39.820Z,101559.16
2023-05-08T06:17:07.979Z,101567.47
2023-05-08T06:19:36.049Z,101567.19
2023-05-08T06:22:03.808Z,101565.34
2023-05-08T06:24:31.364Z,101581.06
2023-05-08T06:26:59.353Z,101575.53
2023-05-08T06:29:27.018Z,101575.88
2023-05-08T06:31:54.612Z,101574.16
2023-05-08T06:34:25.575Z,101584.56
2023-05-08T06:36:53.136Z,101568.22
2023-05-08T06:39:20.661Z,101576.69
2023-05-08T06:41:49.021Z,101582.03
2023-05-08T06:44:24.930Z,101584.97
2023-05-08T06:46:52.520Z,101578.38
2023-05-08T06:49:20.058Z,101595.34
2023-05-08T06:51:47.627Z,101587.56
2023-05-08T06:54:15.615Z,101597.06
2023-05-08T06:56:43.349Z,101584.13
2023-05-08T06:59:10.914Z,101587.47
2023-05-08T07:01:38.616Z,101586.66
2023-05-08T07:04:06.241Z,101593.91
2023-05-08T07:06:34.639Z,101600.47
2023-05-08T07:09:02.393Z,101596.44
2023-05-08T07:11:30.089Z,101600.09
2023-05-08T07:13:57.690Z,101598.81
2023-05-08T07:16:25.207Z,101587.50
2023-05-08T07:18:52.768Z,101593.50
2023-05-08T07:21:21.378Z,101595.56
2023-05-08T07:23:51.739Z,101586.09
2023-05-08T07:26:19.403Z,101592.34
2023-05-08T07:28:47.164Z,101585.00
2023-05-08T07:31:14.785Z,101589.03
2023-05-08T07:33:42.676Z,101578.22
2023-05-08T07:36:10.177Z,101589.69
2023-05-08T07:38:38.295Z,101593.59
2023-05-08T07:41:07.074Z,101582.22
2023-05-08T07:43:35.014Z,101586.63
2023-05-08T07:46:02.977Z,101587.34
2023-05-08T07:48:31.326Z,101595.72
2023-05-08T07:50:58.832Z,101590.03
2023-05-08T07:53:26.546Z,101578.69
2023-05-08T07:55:54.459Z,101586.25
2023-05-08T07:58:23.785Z,101579.84
2023-05-08T08:00:51.974Z,101576.59
2023-05-08T08:03:19.744Z,101579.44
2023-05-08T08:05:47.412Z,101578.25
2023-05-08T08:08:14.973Z,101572.56
2023-05-08T08:10:42.509Z,101579.69
2023-05-08T08:13:10.175Z,101577.84
2023-05-08T08:15:37.791Z,101581.72
2023-05-08T08:18:05.421Z,101571.53
2023-05-08T08:20:32.931Z,101565.56
2023-05-08T08:23:00.548Z,101566.28
2023-05-08T08:25:28.440Z,101559.91
2023-05-08T08:27:55.985Z,101572.13
2023-05-08T08:30:23.638Z,101568.28
2023-05-08T08:32:51.210Z,101568.25
2023-05-08T08:35:18.977Z,101567.53
2023-05-08T08:37:46.573Z,101560.19
2023-05-08T08:40:14.158Z,101564.84
2023-05-08T08:42:41.914Z,101568.13
2023-05-08T08:45:11.201Z,101565.53
2023-05-08T08:47:43.236Z,101571.31
2023-05-08T08:50:14.650Z,101578.50
2023-05-08T08:52:58.687Z,101569.66
2023-05-08T08:55:26.988Z,101569.63
2023-05-08T08:58:03.250Z,101567.13
2023-05-08T09:00:32.629Z,101557.63
2023-05-08T09:03:00.647Z,101554.50
2023-05-08T09:05:28.601Z,101544.38
2023-05-08T09:07:56.357Z,101558.03
2023-05-08T09:10:27.210Z,101553.09
2023-05-08T09:12:55.102Z,101544.56
2023-05-08T09:15:22.706Z,101548.81
2023-05-08T09:17:50.355Z,101540.41
2023-05-08T09:20:18.905Z,101553.41
2023-05-08T09:22:46.770Z,101542.44
2023-05-08T09:25:14.634Z,101542.22
2023-05-08T09:27:42.429Z,101543.09
2023-05-08T09:30:11.755Z,101525.94
2023-05-08T09:32:41.066Z,101529.94
2023-05-08T09:35:09.963Z,101542.72
2023-05-08T09:37:43.233Z,101533.78
2023-05-08T09:40:22.124Z,101535.13
2023-05-08T09:42:51.055Z,101532.22
2023-05-08T09:45:31.444Z,101535.50
2023-05-08T09:47:59.565Z,101527.41
2023-05-08T09:50:27.947Z,101536.84
2023-05-08T09:52:55.815Z,101522.53
2023-05-08T09:55:23.484Z,101520.44
2023-05-08T09:57:59.794Z,101517.56
2023-05-08T10:00:30.092Z,101516.59
2023-05-08T10:03:00.099Z,101519.56
2023-05-08T10:05:31.642Z,101510.78
2023-05-08T10:08:18.733Z,101522.03
2023-05-08T10:10:46.666Z,101521.56
2023-05-08T10:13:14.559Z,101519.28
2023-05-08T10:15:43.699Z,101524.28
2023-05-08T10:18:12.364Z,101528.28
2023-05-08T10:20:42.379Z,101512.84
2023-05-08T10:23:14.937Z,101516.94
2023-05-08T10:25:46.291Z,101505.78
2023-05-08T10:28:22.932Z,101500.75
2023-05-08T10:30:51.177Z,101505.31
2023-05-08T10:33:21.652Z,101512.38
2023-05-08T10:35:49.554Z,101511.84
2023-05-08T10:38:17.639Z,101496.16
2023-05-08T10:40:46.184Z,101502.97
2023-05-08T10:43:14.675Z,101505.69
2023-05-08T10:45:42.740Z,101521.16
2023-05-08T10:48:39.439Z,101516.06
2023-05-08T10:51:22.052Z,101510.88
2023-05-08T10:53:55.406Z,101507.41
2023-05-08T10:56:27.551Z,101511.19
2023-05-08T10:58:59.240Z,101506.34
2023-05-08T11:01:27.137Z,101515.38
2023-05-08T11:03:58.087Z,101508.69
2023-05-08T11:06:46.055Z,101514.72
2023-05-08T11:09:22.086Z,101515.94
2023-05-08T11:12:16.029Z,101516.97
2023-05-08T11:14:53.402Z,101500.94
2023-05-08T11:17:25.548Z,101510.69
2023-05-08T11:20:01.226Z,101507.88
2023-05-08T11:22:29.971Z,101513.66
2023-05-08T11:25:03.657Z,101509.41
2023-05-08T11:27:47.241Z,101518.56
2023-05-08T11:30:24.420Z,101510.38
2023-05-08T11:33:04.233Z,101516.94
2023-05-08T11:35:57.246Z,101509.13
2023-05-08T11:38:30.753Z,101511.22
2023-05-08T11:41:07.449Z,101507.81
2023-05-08T11:43:37.905Z,101514.16
2023-05-08T11:46:05.853Z,101509.31
2023-05-08T11:48:33.876Z,101501.88
2023-05-08T11:51:02.956Z,101515.63
2023-05-08T11:53:31.461Z,101511.72
2023-05-08T11:56:00.622Z,101510.88
2023-05-08T11:58:28.116Z,101508.06
2023-05-08T12:00:55.986Z,101508.94
2023-05-08T12:03:27.851Z,101511.09
2023-05-08T12:05:57.706Z,101508.38
2023-05-08T12:08:26.386Z,101500.22
2023-05-08T12:10:55.670Z,101496.06
2023-05-08T12:13:27.644Z,101505.47
2023-05-08T12:16:00.610Z,101501.78
2023-05-08T12:18:30.609Z,101493.50
2023-05-08T12:21:00.224Z,101503.97
2023-05-08T12:23:29.675Z,101509.56
2023-05-08T12:26:01.780Z,101508.59
2023-05-08T12:28:32.494Z,101507.28
2023-05-08T12:31:00.765Z,101492.06
2023-05-08T12:33:29.279Z,101496.28
2023-05-08T12:35:57.407Z,101492.56
2023-05-08T12:38:28.289Z,101500.66
2023-05-08T12:40:56.202Z,101491.53
2023-05-08T12:43:34.786Z,101487.81
2023-05-08T12:46:06.244Z,101496.97
2023-05-08T12:48:34.310Z,101500.22
2023-05-08T12:51:04.002Z,101508.34
2023-05-08T12:53:32.917Z,101513.16
2023-05-08T12:56:04.610Z,101501.34
2023-05-08T12:58:34.761Z,101505.81
2023-05-08T13:01:13.274Z,101509.22
2023-05-08T13:03:41.680Z,101503.53
2023-05-08T13:06:21.026Z,101507.41
2023-05-08T13:08:55.284Z,101509.22
2023-05-08T13:11:31.621Z,101505.34
2023-05-08T13:13:59.404Z,101512.56
2023-05-08T13:16:27.126Z,101502.66
2023-05-08T13:18:54.693Z,101512.19
2023-05-08T13:21:22.288Z,101517.63
2023-05-08T13:23:49.847Z,101519.88
2023-05-08T13:26:17.501Z,101512.53
2023-05-08T13:28:45.038Z,101513.22
2023-05-08T13:31:12.590Z,101510.31
2023-05-08T13:33:40.175Z,101509.09
2023-05-08T13:36:08.444Z,101518.13
2023-05-08T13:38:36.172Z,101513.00
2023-05-08T13:41:03.714Z,101518.81
2023-05-08T13:43:31.336Z,101511.69
2023-05-08T13:45:58.896Z,101516.47
2023-05-08T13:48:26.479Z,101519.25
2023-05-08T13:50:54.298Z,101516.56
2023-05-08T13:53:21.881Z,101513.41
2023-05-08T13:55:49.460Z,101527.59
2023-05-08T13:58:17.078Z,101531.22
2023-05-08T14:00:45.503Z,101525.59
2023-05-08T14:03:13.262Z,101527.69
2023-05-08T14:05:40.953Z,101530.53
2023-05-08T14:08:08.720Z,101533.44
2023-05-08T14:10:36.468Z,101523.84
2023-05-08T14:13:04.283Z,101523.00
2023-05-08T14:15:37.088Z,101535.81
2023-05-08T14:18:06.021Z,101526.22
2023-05-08T14:20:34.935Z,101536.56
2023-05-08T14:23:02.868Z,101532.78
2023-05-08T14:25:30.726Z,101529.41
2023-05-08T14:27:58.297Z,101533.03
2023-05-08T14:30:25.901Z,101534.84
2023-05-08T14:32:53.635Z,101540.56
2023-05-08T14:35:21.308Z,101529.34
2023-05-08T14:37:48.753Z,101528.44
2023-05-08T14:40:16.311Z,101532.00
2023-05-08T14:42:43.861Z,101529.88
2023-05-08T14:45:11.734Z,101522.09
2023-05-08T14:47:39.736Z,101524.16
2023-05-08T14:50:07.805Z,101505.91
2023-05-08T14:52:35.866Z,101508.41
2023-05-08T14:55:03.778Z,101514.84
2023-05-08T14:57:31.597Z,101511.34
2023-05-08T14:59:59.201Z,101516.06
2023-05-08T15:02:26.794Z,101509.13
2023-05-08T15:04:54.324Z,101510.63
2023-05-08T15:07:21.860Z,101515.78
2023-05-08T15:09:49.420Z,101516.25
2023-05-08T15:12:17.010Z,101522.00
2023-05-08T15:14:45.421Z,101531.16
2023-05-08T15:17:13.164Z,101531.69
2023-05-08T15:19:40.817Z,101519.69
2023-05-08T15:22:08.903Z,101524.19
2023-05-08T15:24:36.652Z,101527.69
2023-05-08T15:27:04.315Z,101521.50
2023-05-08T15:29:32.337Z,101528.72
2023-05-08T15:31:59.920Z,101526.03
2023-05-08T15:34:32.323Z,101520.50
2023-05-08T15:37:00.749Z,101520.50
2023-05-08T15:39:28.328Z,101519.34
2023-05-08T15:41:55.815Z,101521.31
2023-05-08T15:44:24.877Z,101533.97
2023-05-08T15:46:54.114Z,101536.03
2023-05-08T15:49:25.787Z,101529.00
2023-05-08T15:51:53.846Z,101539.88
2023-05-08T15:54:22.779Z,101542.38
2023-05-08T15:56:50.484Z,101543.66
2023-05-08T15:59:17.996Z,101549.72
2023-05-08T16:01:46.980Z,101543.66
2023-05-08T16:04:14.562Z,101550.69
2023-05-08T16:06:42.088Z,101550.09
2023-05-08T16:09:09.569Z,101551.44
2023-05-08T16:11:37.206Z,101553.00
2023-05-08T16:14:05.075Z,101557.53
2023-05-08T16:16:33.050Z,101557.44
2023-05-08T16:19:00.977Z,101561.13
2023-05-08T16:21:28.621Z,101570.91
2023-05-08T16:23:56.203Z,101566.53
2023-05-08T16:26:24.062Z,101567.06
2023-05-08T16:28:52.089Z,101565.31
2023-05-08T16:31:19.935Z,101566.22
2023-05-08T16:33:47.615Z,101563.59
2023-05-08T16:36:15.151Z,101569.88
2023-05-08T16:38:42.677Z,101572.19
2023-05-08T16:41:11.337Z,101566.16
2023-05-08T16:43:39.332Z,101568.38
2023-05-08T16:46:07.477Z,101572.84
2023-05-08T16:48:35.530Z,101571.97
2023-05-08T16:51:03.072Z,101578.47
2023-05-08T16:53:32.627Z,101580.69
2023-05-08T16:56:00.576Z,101582.72
2023-05-08T16:58:28.225Z,101584.59
2023-05-08T17:00:55.824Z,101591.72
2023-05-08T17:03:23.794Z,101605.13
2023-05-08T17:05:51.595Z,101600.75
2023-05-08T17:08:19.347Z,101603.59
2023-05-08T17:10:46.876Z,101603.75
2023-05-08T17:13:14.568Z,101613.91
2023-05-08T17:15:42.129Z,101615.00
2023-05-08T17:18:10.037Z,101624.75
2023-05-08T17:20:41.086Z,101619.69
2023-05-08T17:23:09.515Z,101629.72
2023-05-08T17:25:37.742Z,101630.81
2023-05-08T17:28:05.426Z,101638.78
2023-05-08T17:30:33.386Z,101639.72
2023-05-08T17:33:00.988Z,101638.13
2023-05-08T17:35:28.582Z,101641.97
2023-05-08T17:37:56.382Z,101642.03
2023-05-08T17:40:25.864Z,101648.34
2023-05-08T17:42:53.438Z,101649.50
2023-05-08T17:45:20.867Z,101656.53
2023-05-08T17:47:48.412Z,101669.19
2023-05-08T17:50:16.029Z,101670.41
2023-05-08T17:52:43.633Z,101678.38
2023-05-08T17:55:11.316Z,101678.44
2023-05-08T17:57:38.945Z,101685.69
2023-05-08T18:00:07.273Z,101683.97
2023-05-08T18:02:36.695Z,101690.44
2023-05-08T18:05:04.693Z,101684.47
2023-05-08T18:07:32.333Z,101694.50
2023-05-08T18:10:00.097Z,101700.75
2023-05-08T18:12:28.162Z,101702.69
2023-05-08T18:14:55.654Z,101697.72
2023-05-08T18:17:23.291Z,101697.28
2023-05-08T18:19:51.022Z,101698.16
2023-05-08T18:22:18.595Z,101699.44
2023-05-08T18:24:46.207Z,101698.97
2023-05-08T18:27:13.744Z,101699.91
2023-05-08T18:29:41.333Z,101706.06
2023-05-08T18:32:08.862Z,101698.97
2023-05-08T18:34:36.755Z,101705.47
2023-05-08T18:37:04.400Z,101703.75
2023-05-08T18:39:31.933Z,101702.97
2023-05-08T18:41:59.483Z,101701.53
2023-05-08T18:44:27.000Z,101699.66
2023-05-08T18:46:54.574Z,101701.00
2023-05-08T18:49:22.296Z,101698.47
2023-05-08T18:51:49.956Z,101705.72
2023-05-08T18:54:17.487Z,101701.13
2023-05-08T18:56:45.074Z,101696.16
2023-05-08T18:59:12.542Z,101703.41
2023-05-08T19:01:40.134Z,101696.53
2023-05-08T19:04:07.814Z,101703.63
2023-05-08T19:06:35.572Z,101702.56
2023-05-08T19:09:03.295Z,101696.66
2023-05-08T19:11:31.136Z,101699.38
2023-05-08T19:13:58.748Z,101699.38
2023-05-08T19:16:26.523Z,101695.94
2023-05-08T19:18:54.087Z,101708.41
2023-05-08T19:21:21.663Z,101701.25
2023-05-08T19:23:49.239Z,101703.34
2023-05-08T19:26:16.831Z,101701.75
2023-05-08T19:28:44.350Z,101699.97
2023-05-08T19:31:12.093Z,101693.72
2023-05-08T19:33:39.691Z,101692.16
2023-05-08T19:36:07.283Z,101695.91
2023-05-08T19:38:37.174Z,101699.25
2023-05-08T19:41:04.592Z,101700.22
2023-05-08T19:43:32.387Z,101700.03
2023-05-08T19:46:00.286Z,101693.00
2023-05-08T19:48:27.898Z,101697.13
2023-05-08T19:50:55.583Z,101693.72
2023-05-08T19:53:23.677Z,101695.44
2023-05-08T19:55:51.291Z,101703.22
2023-05-08T19:58:19.046Z,101703.75
2023-05-08T20:03:17.209Z,101703.31
2023-05-08T20:05:45.150Z,101712.91
2023-05-08T20:08:12.771Z,101709.34
2023-05-08T20:10:40.397Z,101707.13
2023-05-08T20:13:08.046Z,101710.19
2023-05-08T20:15:35.729Z,101704.81
2023-05-08T20:18:05.681Z,101710.22
2023-05-08T20:20:34.889Z,101713.88
2023-05-08T20:23:03.032Z,101712.16
2023-05-08T20:25:30.638Z,101709.78
2023-05-08T20:27:58.271Z,101703.63
2023-05-08T20:30:25.975Z,101700.97
2023-05-08T20:32:53.570Z,101705.38
2023-05-08T20:35:21.267Z,101699.56
2023-05-08T20:37:49.480Z,101703.16
2023-05-08T20:40:17.230Z,101700.09
2023-05-08T20:42:44.932Z,101700.94
2023-05-08T20:45:12.523Z,101691.16
2023-05-08T20:47:40.814Z,101690.22
2023-05-08T20:50:08.731Z,101689.22
2023-05-08T20:52:37.996Z,101692.69
2023-05-08T20:55:07.162Z,101683.03
2023-05-08T20:57:34.984Z,101688.38
2023-05-08T21:00:03.550Z,101675.88
2023-05-08T21:02:31.506Z,101687.16
2023-05-08T21:04:59.252Z,101670.34
2023-05-08T22:02:14.071Z,101655.88
2023-05-08T22:04:41.722Z,101661.28
2023-05-08T22:07:09.305Z,101661.59
2023-05-08T22:09:37.310Z,101648.38
2023-05-08T22:12:06.488Z,101653.56
2023-05-08T22:14:34.826Z,101661.53
2023-05-08T22:17:02.433Z,101649.22
2023-05-08T22:19:31.023Z,101653.66
2023-05-08T22:21:58.625Z,101647.44
2023-05-08T22:24:26.489Z,101644.88
2023-05-08T22:26:54.262Z,101644.88
2023-05-08T22:29:21.879Z,101637.00
2023-05-08T22:31:49.763Z,101645.53
2023-05-08T22:34:17.997Z,101654.59
2023-05-08T22:36:45.706Z,101640.88
2023-05-08T22:39:13.341Z,101642.84
2023-05-08T22:41:40.982Z,101638.66
2023-05-08T22:44:08.755Z,101634.97
2023-05-08T22:46:37.096Z,101641.13
2023-05-08T22:49:05.039Z,101630.34
2023-05-08T22:51:33.146Z,101636.56
2023-05-08T22:54:00.832Z,101626.97
2023-05-08T22:56:28.610Z,101628.94
2023-05-08T22:58:56.181Z,101633.59
2023-05-08T23:01:23.773Z,101623.09
2023-05-08T23:03:53.785Z,101625.56
2023-05-08T23:06:21.451Z,101620.44
2023-05-08T23:08:49.089Z,101623.03
2023-05-08T23:11:16.663Z,101624.88
2023-05-08T23:13:44.294Z,101624.03
2023-05-08T23:16:11.954Z,101621.44
2023-05-08T23:18:39.655Z,101619.84
2023-05-08T23:21:08.456Z,101616.41
2023-05-08T23:23:36.724Z,101619.72
2023-05-08T23:26:05.230Z,101613.56
2023-05-08T23:28:35.042Z,101613.75
2023-05-08T23:31:03.587Z,101612.66
2023-05-08T23:33:31.500Z,101610.88
2023-05-08T23:35:59.261Z,101611.72
2023-05-08T23:38:27.217Z,101612.66
2023-05-08T23:40:54.828Z,101608.41
2023-05-08T23:43:22.749Z,101604.97
2023-05-08T23:45:50.600Z,101607.53
2023-05-08T23:48:18.276Z,101610.00
2023-05-08T23:50:46.571Z,101605.75
2023-05-08T23:53:14.169Z,101609.09
2023-05-08T23:55:42.042Z,101610.97
2023-05-08T23:58:09.726Z,101610.03
